createdAt,value
2022-10-21T00:03:27.129Z,95768.50
2022-10-21T00:08:29.110Z,95760.66
2022-10-21T00:13:33.675Z,95744.59
2022-10-21T00:18:37.730Z,95754.06
2022-10-21T00:23:40.831Z,95761.94
2022-10-21T00:28:43.446Z,95773.31
2022-10-21T00:33:45.124Z,95724.63
2022-10-21T00:38:48.577Z,95724.63
2022-10-21T00:44:02.281Z,95745.84
2022-10-21T00:49:39.624Z,95729.38
2022-10-21T00:54:43.196Z,95718.88
2022-10-21T00:59:49.574Z,95716.56
2022-10-21T01:04:54.725Z,95714.97
2022-10-21T01:09:56.497Z,95715.41
2022-10-21T01:15:21.950Z,95716.66
2022-10-21T01:20:41.921Z,95709.19
2022-10-21T01:26:19.483Z,95708.81
2022-10-21T01:31:48.138Z,95696.28
2022-10-21T01:37:13.586Z,95744.94
2022-10-21T01:42:20.527Z,95749.72
2022-10-21T01:47:32.257Z,95747.53
2022-10-21T01:52:35.049Z,95750.41
2022-10-21T01:57:43.910Z,95753.22
2022-10-21T02:02:49.914Z,95741.13
2022-10-21T02:07:51.986Z,95733.69
2022-10-21T02:12:56.965Z,95712.94
2022-10-21T02:18:08.595Z,95714.06
2022-10-21T02:23:15.333Z,95703.88
2022-10-21T02:28:18.884Z,95711.72
2022-10-21T02:33:27.890Z,95685.13
2022-10-21T02:38:46.755Z,95672.94
2022-10-21T02:43:59.233Z,95678.81
2022-10-21T02:49:00.991Z,95673.69
2022-10-21T02:54:02.713Z,95692.13
2022-10-21T02:59:04.343Z,95690.97
2022-10-21T03:04:07.550Z,95672.94
2022-10-21T03:09:09.528Z,95691.75
2022-10-21T03:14:11.594Z,95685.91
2022-10-21T03:19:13.717Z,95674.16
2022-10-21T03:24:27.914Z,95670.63
2022-10-21T03:29:30.608Z,95673.38
2022-10-21T03:34:32.240Z,95684.34
2022-10-21T03:39:33.944Z,95695.31
2022-10-21T03:44:36.018Z,95690.22
2022-10-21T03:49:37.795Z,95661.59
2022-10-21T03:54:39.483Z,95660.38
2022-10-21T03:59:41.351Z,95662.72
2022-10-21T04:04:42.974Z,95640.78
2022-10-21T04:09:44.630Z,95642.75
2022-10-21T04:14:46.238Z,95635.69
2022-10-21T04:19:48.058Z,95621.22
2022-10-21T04:24:49.933Z,95627.47
2022-10-21T04:29:51.566Z,95617.28
2022-10-21T04:34:53.329Z,95613.75
2022-10-21T04:39:57.410Z,95612.97
2022-10-21T04:44:59.210Z,95622.41
2022-10-21T04:50:00.819Z,95614.56
2022-10-21T04:55:02.592Z,95600.50
2022-10-21T05:00:07.503Z,95580.94
2022-10-21T05:05:10.588Z,95564.91
2022-10-21T05:10:12.254Z,95551.25
2022-10-21T05:15:14.647Z,95547.69
2022-10-21T05:20:16.575Z,95530.47
2022-10-21T05:25:18.454Z,95524.22
2022-10-21T05:30:20.072Z,95525.03
2022-10-21T05:35:22.105Z,95539.16
2022-10-21T05:40:24.194Z,95536.41
2022-10-21T05:45:27.070Z,95552.47
2022-10-21T05:50:28.719Z,95561.47
2022-10-21T05:55:30.466Z,95564.22
2022-10-21T06:00:32.510Z,95549.72
2022-10-21T06:05:35.232Z,95549.31
2022-10-21T06:10:36.988Z,95548.53
2022-10-21T06:15:38.647Z,95559.13
2022-10-21T06:20:40.254Z,95563.06
2022-10-21T06:25:44.169Z,95560.31
2022-10-21T06:30:47.407Z,95564.28
2022-10-21T06:35:49.261Z,95556.81
2022-10-21T06:40:50.865Z,95572.44
2022-10-21T06:45:58.631Z,95564.63
2022-10-21T06:51:09.560Z,95573.22
2022-10-21T06:56:17.189Z,95566.19
2022-10-21T07:01:34.897Z,95557.97
2022-10-21T07:06:43.422Z,95558.72
2022-10-21T07:11:45.008Z,95566.94
2022-10-21T07:16:49.076Z,95577.53
2022-10-21T07:21:50.895Z,95573.94
2022-10-21T07:26:52.972Z,95562.91
2022-10-21T07:31:54.564Z,95544.47
2022-10-21T07:36:56.335Z,95540.84
2022-10-21T07:41:58.420Z,95549.06
2022-10-21T07:47:00.106Z,95535.28
2022-10-21T07:52:02.662Z,95525.03
2022-10-21T07:57:04.350Z,95519.44
2022-10-21T08:02:06.143Z,95512.56
2022-10-21T08:07:10.306Z,95515.56
2022-10-21T08:12:15.487Z,95518.22
2022-10-21T08:17:17.539Z,95520.84
2022-10-21T08:22:19.775Z,95528.16
2022-10-21T08:27:21.388Z,95535.88
2022-10-21T08:32:23.127Z,95533.44
2022-10-21T08:37:25.756Z,95535.69
2022-10-21T08:42:27.984Z,95534.00
2022-10-21T08:47:45.922Z,95532.75
2022-10-21T08:53:13.760Z,95549.53
2022-10-21T08:58:21.823Z,95530.94
2022-10-21T09:03:39.151Z,95522.16
2022-10-21T09:08:57.435Z,95525.50
2022-10-21T09:14:24.528Z,95527.69
2022-10-21T09:19:43.501Z,95518.09
2022-10-21T09:25:17.600Z,95527.75
2022-10-21T09:30:24.535Z,95551.50
2022-10-21T09:35:48.387Z,95560.03
2022-10-21T09:40:59.299Z,95573.31
2022-10-21T09:46:00.999Z,95595.25
2022-10-21T09:51:14.074Z,95597.91
2022-10-21T09:56:24.802Z,95581.00
2022-10-21T10:01:29.362Z,95579.00
2022-10-21T10:06:42.666Z,95577.03
2022-10-21T10:12:02.850Z,95581.75
2022-10-21T10:17:31.912Z,95575.91
2022-10-21T10:22:38.906Z,95584.50
2022-10-21T10:27:59.816Z,95583.66
2022-10-21T10:33:14.084Z,95587.91
2022-10-21T10:38:42.571Z,95565.81
2022-10-21T10:43:46.351Z,95566.59
2022-10-21T10:48:52.689Z,95578.13
2022-10-21T10:54:06.522Z,95596.47
2022-10-21T10:59:23.562Z,95582.94
2022-10-21T11:10:02.037Z,95555.03
2022-10-21T11:15:04.045Z,95546.56
2022-10-21T11:20:15.785Z,95542.78
2022-10-21T11:25:26.992Z,95531.19
2022-10-21T11:30:36.967Z,95526.25
2022-10-21T11:35:59.010Z,95534.78
2022-10-21T11:41:31.769Z,95518.19
2022-10-21T11:46:46.904Z,95511.78
2022-10-21T11:51:48.568Z,95520.72
2022-10-21T11:57:41.459Z,95532.09
2022-10-21T12:03:23.736Z,95503.66
2022-10-21T12:08:31.067Z,95515.28
2022-10-21T12:13:38.084Z,95529.31
2022-10-21T12:18:44.550Z,95537.06
2022-10-21T12:23:54.047Z,95543.69
2022-10-21T12:29:07.378Z,95546.44
2022-10-21T12:34:11.498Z,95548.00
2022-10-21T12:39:35.212Z,95559.78
2022-10-21T12:44:38.150Z,95538.41
2022-10-21T12:49:43.600Z,95535.13
2022-10-21T12:54:58.249Z,95542.91
2022-10-21T13:00:28.405Z,95534.72
2022-10-21T13:05:36.517Z,95540.31
2022-10-21T13:10:40.565Z,95523.41
2022-10-21T13:15:46.241Z,95515.84
2022-10-21T13:20:57.136Z,95527.47
2022-10-21T13:26:12.334Z,95521.66
2022-10-21T13:31:21.192Z,95520.03
2022-10-21T13:41:43.448Z,95536.09
2022-10-21T13:46:45.058Z,95537.53
2022-10-21T13:51:47.097Z,95538.56
2022-10-21T13:56:48.826Z,95542.31
2022-10-21T14:01:53.346Z,95550.38
2022-10-21T14:07:05.647Z,95543.09
2022-10-21T14:12:18.249Z,95533.94
2022-10-21T14:17:26.207Z,95550.38
2022-10-21T14:22:31.093Z,95553.28
2022-10-21T14:27:35.037Z,95544.78
2022-10-21T14:32:37.661Z,95538.28
2022-10-21T14:37:49.581Z,95548.88
2022-10-21T14:42:53.322Z,95544.22
2022-10-21T14:48:24.041Z,95550.53
2022-10-21T14:53:27.841Z,95547.09
2022-10-21T14:58:34.626Z,95551.53
2022-10-21T15:03:58.156Z,95536.63
2022-10-21T15:09:10.476Z,95540.31
2022-10-21T15:14:21.007Z,95538.44
2022-10-21T15:19:40.621Z,95540.31
2022-10-21T15:24:45.144Z,95535.88
2022-10-21T15:29:48.754Z,95553.31
2022-10-21T15:34:52.081Z,95553.19
2022-10-21T15:39:53.673Z,95548.44
2022-10-21T15:44:55.340Z,95542.94
2022-10-21T15:49:58.330Z,95549.09
2022-10-21T15:55:00.094Z,95552.97
2022-10-21T16:00:02.242Z,95556.97
2022-10-21T16:05:06.390Z,95554.75
2022-10-21T16:10:22.405Z,95548.53
2022-10-21T16:15:25.134Z,95552.19
2022-10-21T16:20:30.249Z,95554.25
2022-10-21T16:25:33.486Z,95541.34
2022-10-21T16:30:37.521Z,95540.91
2022-10-21T16:35:39.152Z,95546.44
2022-10-21T16:40:40.921Z,95556.66
2022-10-21T16:45:43.998Z,95570.91
2022-10-21T16:50:46.479Z,95566.28
2022-10-21T16:55:48.371Z,95554.56
2022-10-21T17:00:50.954Z,95564.81
2022-10-21T17:05:52.679Z,95580.69
2022-10-21T17:10:55.065Z,95582.31
2022-10-21T17:15:56.654Z,95585.97
2022-10-21T17:20:58.451Z,95587.19
2022-10-21T17:26:00.194Z,95583.63
2022-10-21T17:31:01.911Z,95583.31
2022-10-21T17:36:03.763Z,95583.72
2022-10-21T17:41:06.184Z,95593.22
2022-10-21T17:46:09.932Z,95600.38
2022-10-21T17:51:11.723Z,95592.16
2022-10-21T17:56:13.553Z,95586.41
2022-10-21T18:01:15.264Z,95605.81
2022-10-21T18:06:17.088Z,95604.34
2022-10-21T18:11:20.618Z,95609.59
2022-10-21T18:16:23.767Z,95596.31
2022-10-21T18:21:25.600Z,95597.63
2022-10-21T18:26:30.716Z,95577.31
2022-10-21T18:31:35.551Z,95577.81
2022-10-21T18:36:37.411Z,95573.59
2022-10-21T18:41:39.630Z,95585.50
2022-10-21T18:46:43.086Z,95576.97
2022-10-21T18:51:45.386Z,95575.50
2022-10-21T18:56:48.595Z,95574.38
2022-10-21T19:01:50.770Z,95573.28
2022-10-21T19:06:54.734Z,95563.13
2022-10-21T19:11:56.577Z,95561.22
2022-10-21T19:16:58.937Z,95566.38
2022-10-21T19:22:00.621Z,95551.03
2022-10-21T19:27:02.306Z,95537.38
2022-10-21T19:32:04.080Z,95541.75
2022-10-21T19:37:06.772Z,95561.13
2022-10-21T19:42:08.453Z,95553.72
2022-10-21T19:47:10.183Z,95547.53
2022-10-21T19:52:11.758Z,95559.41
2022-10-21T19:57:13.535Z,95553.97
2022-10-21T20:02:15.338Z,95574.88
2022-10-21T20:07:16.981Z,95579.66
2022-10-21T20:12:19.202Z,95593.06
2022-10-21T20:17:20.912Z,95593.94
2022-10-21T20:22:24.613Z,95598.72
2022-10-21T20:27:26.725Z,95598.03
2022-10-21T20:32:28.337Z,95593.38
2022-10-21T20:37:30.006Z,95600.16
2022-10-21T20:42:31.646Z,95605.31
2022-10-21T20:47:33.234Z,95595.16
2022-10-21T20:52:34.995Z,95600.75
2022-10-21T20:57:40.364Z,95586.63
2022-10-21T21:02:42.221Z,95583.50
2022-10-21T21:07:43.853Z,95580.41
2022-10-21T21:12:45.483Z,95598.53
2022-10-21T21:17:51.012Z,95587.97
2022-10-21T21:22:52.967Z,95575.41
2022-10-21T21:27:54.563Z,95579.38
2022-10-21T21:32:56.207Z,95577.47
2022-10-21T21:37:58.085Z,95571.63
2022-10-21T21:42:59.671Z,95572.03
2022-10-21T21:48:01.438Z,95565.41
2022-10-21T21:53:03.097Z,95563.84
2022-10-21T21:58:05.482Z,95555.25
2022-10-21T22:03:07.150Z,95541.13
2022-10-21T22:08:10.101Z,95540.00
2022-10-21T22:13:12.802Z,95530.63
2022-10-21T22:18:14.993Z,95533.84
2022-10-21T22:23:17.270Z,95548.00
2022-10-21T22:28:18.936Z,95541.38
2022-10-21T22:33:21.033Z,95557.09
2022-10-21T22:38:23.247Z,95555.53
2022-10-21T22:43:26.204Z,95562.66
2022-10-21T22:48:27.892Z,95576.84
2022-10-21T22:53:29.546Z,95572.97
2022-10-21T22:58:31.609Z,95577.69
2022-10-21T23:03:33.330Z,95580.09
2022-10-21T23:08:35.160Z,95569.50
2022-10-21T23:13:36.819Z,95569.13
2022-10-21T23:18:38.481Z,95575.06
2022-10-21T23:23:40.221Z,95568.81
2022-10-21T23:28:42.022Z,95572.75
2022-10-21T23:33:43.692Z,95569.63
2022-10-21T23:38:45.417Z,95576.34
2022-10-21T23:43:47.057Z,95568.50
2022-10-21T23:48:48.756Z,95562.66
2022-10-21T23:53:50.483Z,95571.72
2022-10-21T23:58:52.814Z,95568.22
